Time;durP1;ratioP1;P1;durP2;ratioP2;P2;SDS_P1;SDS_P2;PMS_P1;PMS_P2;Temp;Humidity;BMP_temperature;BMP_pressure;BME280_temperature;BME280_humidity;BME280_pressure;Samples;Min_cycle;Max_cycle;Signal;HPM_P1;HPM_P2
2024/01/04 00:00:13;;;;;;;0.60;0.60;;;;;;;6.61;94.15;95336.41;29395;243;63009;-60
2024/01/04 00:00:45;;;;;;;0.60;0.60;;;;;;;6.60;95.75;95332.12;29395;246;63005;-58
2024/01/04 00:01:16;;;;;;;0.50;0.50;;;;;;;6.59;95.36;95330.53;29395;284;63009;-55
2024/01/04 00:01:47;;;;;;;0.60;0.60;;;;;;;6.55;95.47;95326.88;29395;250;63013;-61
2024/01/04 00:02:20;;;;;;;0.50;0.50;;;;;;;6.51;95.51;95335.87;29394;209;64013;-60
2024/01/04 00:02:52;;;;;;;0.60;0.60;;;;;;;6.48;96.17;95326.50;29395;214;63004;-63
2024/01/04 00:03:26;;;;;;;0.50;0.50;;;;;;;6.51;95.67;95325.09;29395;224;63009;-62
2024/01/04 00:03:57;;;;;;;0.50;0.50;;;;;;;6.49;95.52;95320.00;29395;230;63004;-60
2024/01/04 00:04:28;;;;;;;0.60;0.60;;;;;;;6.45;95.79;95329.78;29395;230;63008;-56
2024/01/04 00:04:59;;;;;;;0.50;0.50;;;;;;;6.42;95.74;95322.31;29395;225;63004;-55
2024/01/04 00:05:31;;;;;;;0.50;0.50;;;;;;;6.46;96.35;95327.91;29395;220;63009;-60
2024/01/04 00:06:04;;;;;;;0.60;0.60;;;;;;;6.48;97.04;95323.00;29395;251;63005;-56
2024/01/04 00:06:41;;;;;;;0.50;0.50;;;;;;;6.48;97.25;95323.00;29395;209;63009;-62
2024/01/04 00:07:13;;;;;;;0.60;0.60;;;;;;;6.44;96.72;95325.50;29395;238;63005;-57
2024/01/04 00:07:48;;;;;;;0.50;0.50;;;;;;;6.41;97.63;95330.69;29394;249;64013;-59
2024/01/04 00:08:19;;;;;;;0.50;0.50;;;;;;;6.39;97.41;95328.31;29394;245;64009;-65
2024/01/04 00:08:50;;;;;;;0.60;0.60;;;;;;;6.45;96.99;95332.50;29395;246;63009;-59
2024/01/04 00:09:22;;;;;;;0.60;0.60;;;;;;;6.42;96.99;95330.41;29395;199;63005;-55
2024/01/04 00:09:53;;;;;;;0.60;0.60;;;;;;;6.37;97.28;95327.81;29395;197;63009;-63
2024/01/04 00:10:24;;;;;;;0.50;0.50;;;;;;;6.35;97.34;95316.53;29395;204;63004;-61
2024/01/04 00:10:56;;;;;;;0.50;0.50;;;;;;;6.30;97.72;95330.91;29395;204;63009;-61
2024/01/04 00:11:28;;;;;;;0.50;0.50;;;;;;;6.29;97.58;95326.63;29395;278;63014;-60
2024/01/04 00:11:59;;;;;;;0.57;0.57;;;;;;;6.26;98.95;95332.62;29394;222;64013;-61
2024/01/04 00:12:30;;;;;;;0.50;0.50;;;;;;;6.24;99.25;95326.75;29395;220;63004;-61
2024/01/04 00:13:02;;;;;;;0.50;0.50;;;;;;;6.18;100.00;95338.75;29395;271;63005;-61
2024/01/04 00:13:33;;;;;;;0.60;0.60;;;;;;;6.23;99.56;95335.94;29395;224;63005;-66
2024/01/04 00:14:07;;;;;;;0.50;0.50;;;;;;;6.27;98.42;95326.13;29395;213;63009;-60
2024/01/04 00:14:38;;;;;;;0.60;0.60;;;;;;;6.31;98.26;95329.81;29395;280;63005;-56
2024/01/04 00:15:14;;;;;;;0.50;0.50;;;;;;;6.26;99.67;95339.91;29395;240;63009;-61
2024/01/04 00:15:48;;;;;;;0.50;0.50;;;;;;;6.23;99.99;95338.66;29395;260;63005;-56
2024/01/04 00:16:19;;;;;;;0.50;0.50;;;;;;;6.20;99.79;95341.94;29395;218;63009;-65
2024/01/04 00:16:54;;;;;;;0.50;0.50;;;;;;;6.22;99.18;95347.03;29395;254;63005;-56
2024/01/04 00:17:26;;;;;;;0.50;0.50;;;;;;;6.25;98.63;95349.09;29394;203;64013;-59
2024/01/04 00:17:57;;;;;;;0.60;0.60;;;;;;;6.30;97.94;95343.59;29395;251;63004;-60
2024/01/04 00:18:29;;;;;;;0.50;0.50;;;;;;;6.29;97.55;95339.31;29395;226;63009;-60
2024/01/04 00:19:01;;;;;;;0.50;0.50;;;;;;;6.28;97.48;95343.09;29395;218;63004;-56
2024/01/04 00:19:32;;;;;;;0.50;0.50;;;;;;;6.29;97.50;95342.00;29395;217;63008;-60
2024/01/04 00:20:04;;;;;;;0.50;0.50;;;;;;;6.31;97.70;95337.09;29395;218;63011;-64
2024/01/04 00:20:35;;;;;;;0.50;0.50;;;;;;;6.36;97.47;95331.59;29395;211;63009;-59
2024/01/04 00:21:10;;;;;;;0.50;0.50;;;;;;;6.33;97.63;95340.28;29395;225;63005;-60
2024/01/04 00:21:44;;;;;;;0.50;0.50;;;;;;;6.29;97.84;95339.31;29395;226;63009;-61
2024/01/04 00:22:16;;;;;;;0.50;0.50;;;;;;;6.25;97.71;95339.09;29395;245;63005;-60
2024/01/04 00:22:47;;;;;;;0.50;0.50;;;;;;;6.24;97.68;95337.50;29394;227;64013;-57
2024/01/04 00:23:18;;;;;;;0.50;0.50;;;;;;;6.23;98.66;95345.94;29395;222;63005;-61
2024/01/04 00:23:49;;;;;;;0.50;0.50;;;;;;;6.20;100.00;95341.94;29395;219;63009;-62
2024/01/04 00:24:21;;;;;;;0.50;0.50;;;;;;;6.18;99.77;95343.34;29395;228;63005;-62
2024/01/04 00:24:52;;;;;;;0.50;0.50;;;;;;;6.16;100.00;95350.91;29395;210;63018;-62
2024/01/04 00:25:23;;;;;;;0.52;0.52;;;;;;;6.15;99.72;95347.44;29395;203;63009;-61
2024/01/04 00:25:55;;;;;;;0.50;0.50;;;;;;;6.15;100.00;95346.63;29395;203;63026;-63
2024/01/04 00:26:26;;;;;;;0.60;0.60;;;;;;;6.15;100.00;95341.25;29394;246;64009;-56
2024/01/04 00:26:58;;;;;;;0.50;0.50;;;;;;;6.23;99.33;95345.94;29395;279;63009;-65
2024/01/04 00:27:29;;;;;;;0.60;0.60;;;;;;;6.27;99.24;95341.50;29395;212;63004;-59
2024/01/04 00:28:01;;;;;;;0.50;0.50;;;;;;;6.24;99.31;95350.97;29394;218;64014;-61
2024/01/04 00:28:33;;;;;;;0.50;0.50;;;;;;;6.24;99.41;95358.25;29395;199;63005;-59
2024/01/04 00:29:05;;;;;;;0.50;0.50;;;;;;;6.29;99.63;95350.88;29395;202;63014;-58
2024/01/04 00:29:38;;;;;;;0.50;0.50;;;;;;;6.34;98.65;95358.84;29395;253;63005;-58
2024/01/04 00:30:10;;;;;;;0.50;0.50;;;;;;;6.34;98.63;95352.66;29395;250;63009;-56
2024/01/04 00:30:41;;;;;;;0.50;0.50;;;;;;;6.29;99.72;95360.84;29395;202;63005;-59
2024/01/04 00:31:15;;;;;;;0.60;0.60;;;;;;;6.23;100.00;95357.50;29395;222;63009;-60
2024/01/04 00:31:50;;;;;;;0.50;0.50;;;;;;;6.18;100.00;95363.00;29395;222;63004;-56
2024/01/04 00:32:21;;;;;;;0.52;0.52;;;;;;;6.15;100.00;95365.47;29395;301;63009;-55
2024/01/04 00:32:53;;;;;;;0.60;0.60;;;;;;;6.10;100.00;95369.06;29395;234;63004;-60
2024/01/04 00:33:25;;;;;;;0.50;0.50;;;;;;;6.10;100.00;95369.06;29394;224;64013;-60
2024/01/04 00:33:56;;;;;;;0.60;0.60;;;;;;;6.10;100.00;95365.59;29395;238;63004;-61
2024/01/04 00:34:28;;;;;;;0.60;0.60;;;;;;;6.08;100.00;95354.31;29395;232;63008;-55
2024/01/04 00:34:59;;;;;;;0.60;0.60;;;;;;;6.05;100.00;95361.91;29395;231;63004;-66
2024/01/04 00:35:32;;;;;;;0.57;0.57;;;;;;;6.08;100.00;95365.88;29394;198;64014;-64
2024/01/04 00:36:05;;;;;;;0.50;0.50;;;;;;;6.08;100.00;95370.47;29395;210;63005;-58
2024/01/04 00:36:36;;;;;;;0.60;0.60;;;;;;;6.14;100.00;95369.28;29395;205;63009;-62
2024/01/04 00:37:07;;;;;;;0.60;0.60;;;;;;;6.18;100.00;95359.50;29395;227;63005;-59
2024/01/04 00:37:39;;;;;;;0.60;0.60;;;;;;;6.17;100.00;95352.50;29395;209;63009;-56
2024/01/04 00:38:10;;;;;;;0.60;0.60;;;;;;;6.15;100.00;95354.72;29395;225;63005;-60
2024/01/04 00:38:41;;;;;;;0.50;0.50;;;;;;;6.20;100.00;95357.28;29395;220;63009;-60
2024/01/04 00:39:12;;;;;;;0.50;0.50;;;;;;;6.19;100.00;95361.09;29395;220;63004;-56
2024/01/04 00:39:44;;;;;;;0.50;0.50;;;;;;;6.18;100.00;95370.28;29395;272;63009;-61
2024/01/04 00:40:17;;;;;;;0.50;0.50;;;;;;;6.15;100.00;95365.47;29395;208;63004;-59
2024/01/04 00:40:48;;;;;;;0.60;0.60;;;;;;;6.15;100.00;95370.88;29394;218;64013;-62
2024/01/04 00:41:19;;;;;;;0.60;0.60;;;;;;;6.18;100.00;95368.38;29395;263;63004;-59
2024/01/04 00:41:51;;;;;;;0.50;0.50;;;;;;;6.20;100.00;95373.47;29395;212;63008;-63
2024/01/04 00:42:22;;;;;;;0.50;0.50;;;;;;;6.20;100.00;95368.88;29395;255;63005;-59
2024/01/04 00:42:54;;;;;;;0.60;0.60;;;;;;;6.22;100.00;95368.56;29395;216;63009;-60
2024/01/04 00:43:26;;;;;;;0.60;0.60;;;;;;;6.22;100.00;95365.88;29395;219;63005;-62
2024/01/04 00:43:57;;;;;;;0.50;0.50;;;;;;;6.20;100.00;95368.88;29395;234;63009;-59
2024/01/04 00:44:28;;;;;;;0.50;0.50;;;;;;;6.19;100.00;95366.47;29395;309;63005;-56
2024/01/04 00:45:00;;;;;;;0.60;0.60;;;;;;;6.14;100.00;95358.50;29394;222;64013;-56
2024/01/04 00:45:32;;;;;;;0.50;0.50;;;;;;;6.10;100.00;95361.00;29395;220;63005;-59
2024/01/04 00:46:03;;;;;;;0.50;0.50;;;;;;;6.08;100.00;95365.88;29395;217;63017;-60
2024/01/04 00:46:34;;;;;;;0.50;0.50;;;;;;;6.09;100.00;95361.28;29395;216;63004;-61
2024/01/04 00:47:06;;;;;;;0.60;0.60;;;;;;;6.10;100.00;95368.28;29394;225;64013;-59
2024/01/04 00:47:39;;;;;;;0.50;0.50;;;;;;;6.12;100.00;95372.25;29395;243;63004;-58
2024/01/04 00:48:10;;;;;;;0.50;0.50;;;;;;;6.10;100.00;95373.66;29395;237;63009;-60
2024/01/04 00:48:41;;;;;;;0.50;0.50;;;;;;;6.08;100.00;95370.47;29395;237;63004;-64
2024/01/04 00:49:15;;;;;;;0.50;0.50;;;;;;;6.05;100.00;95372.66;29395;215;63008;-60
2024/01/04 00:49:47;;;;;;;0.50;0.50;;;;;;;6.05;100.00;95371.88;29395;245;63005;-60
2024/01/04 00:50:18;;;;;;;0.60;0.60;;;;;;;6.03;100.00;95364.09;29395;239;63009;-61
2024/01/04 00:50:53;;;;;;;0.50;0.50;;;;;;;6.02;100.00;95375.16;29395;252;63005;-61
2024/01/04 00:51:31;;;;;;;0.50;0.50;;;;;;;6.04;100.00;95381.84;29395;202;63009;-61
2024/01/04 00:52:03;;;;;;;0.50;0.50;;;;;;;6.13;100.00;95375.75;29395;250;63005;-57
2024/01/04 00:52:35;;;;;;;0.50;0.50;;;;;;;6.14;100.00;95369.28;29394;200;64013;-61
2024/01/04 00:53:06;;;;;;;0.50;0.50;;;;;;;6.16;100.00;95367.06;29395;267;63005;-61
2024/01/04 00:53:39;;;;;;;0.50;0.50;;;;;;;6.24;100.00;95367.13;29395;225;63009;-61
2024/01/04 00:54:12;;;;;;;0.50;0.50;;;;;;;6.22;100.00;95365.88;29395;200;63016;-59
2024/01/04 00:54:43;;;;;;;0.50;0.50;;;;;;;6.17;100.00;95363.28;29395;255;63025;-60
2024/01/04 00:55:15;;;;;;;0.50;0.50;;;;;;;6.13;100.00;95373.06;29395;242;63004;-59
2024/01/04 00:55:47;;;;;;;0.60;0.60;;;;;;;6.13;100.00;95375.75;29395;214;63024;-59
2024/01/04 00:56:19;;;;;;;0.50;0.50;;;;;;;6.14;100.00;95377.34;29395;204;63004;-63
2024/01/04 00:56:57;;;;;;;0.50;0.50;;;;;;;6.14;100.00;95380.84;29395;202;63008;-63
2024/01/04 00:57:29;;;;;;;0.50;0.50;;;;;;;6.22;100.00;95387.41;29395;216;63005;-58
2024/01/04 00:58:03;;;;;;;0.50;0.50;;;;;;;6.20;100.00;95387.72;29394;200;64014;-62
2024/01/04 00:58:34;;;;;;;0.50;0.50;;;;;;;6.21;100.00;95383.13;29395;202;63005;-62
2024/01/04 00:59:06;;;;;;;0.50;0.50;;;;;;;6.18;100.00;95381.03;29395;231;63009;-61
2024/01/04 00:59:37;;;;;;;0.50;0.50;;;;;;;6.15;100.00;95381.63;29395;272;63005;-60
2024/01/04 01:00:09;;;;;;;0.50;0.50;;;;;;;6.11;100.00;95384.13;29395;214;63009;-56
2024/01/04 01:00:43;;;;;;;0.60;0.60;;;;;;;6.07;100.00;95379.66;29395;253;63005;-60
2024/01/04 01:01:16;;;;;;;0.57;0.57;;;;;;;6.03;100.00;95385.62;29396;197;63009;-59
2024/01/04 01:01:48;;;;;;;0.60;0.60;;;;;;;6.00;100.00;95388.91;29395;254;63004;-60
2024/01/04 01:02:20;;;;;;;0.60;0.60;;;;;;;5.95;100.00;95383.63;29395;210;63009;-60
2024/01/04 01:02:52;;;;;;;0.50;0.50;;;;;;;5.93;100.00;95379.66;29395;219;63004;-58
2024/01/04 01:03:23;;;;;;;0.57;0.57;;;;;;;5.92;100.00;95378.84;29394;202;64013;-59
2024/01/04 01:03:55;;;;;;;0.50;0.50;;;;;;;5.93;100.00;95383.13;29395;354;63004;-57
2024/01/04 01:04:26;;;;;;;0.60;0.60;;;;;;;5.92;100.00;95380.75;29395;245;63008;-57
2024/01/04 01:04:58;;;;;;;0.60;0.60;;;;;;;5.91;100.00;95377.25;29395;221;63005;-58
2024/01/04 01:05:32;;;;;;;0.55;0.55;;;;;;;5.90;100.00;95382.94;29395;233;63009;-57
2024/01/04 01:06:11;;;;;;;0.50;0.50;;;;;;;5.89;100.00;95386.75;29394;205;64005;-57
2024/01/04 01:06:45;;;;;;;0.60;0.60;;;;;;;5.87;100.00;95386.22;29395;238;63024;-56
2024/01/04 01:07:19;;;;;;;0.60;0.60;;;;;;;5.86;100.00;95385.41;29395;207;63005;-58
2024/01/04 01:07:54;;;;;;;0.60;0.60;;;;;;;5.89;100.00;95386.75;29395;233;63009;-57
2024/01/04 01:08:29;;;;;;;0.60;0.60;;;;;;;5.89;100.00;95390.22;29394;226;64009;-57
2024/01/04 01:09:02;;;;;;;0.60;0.60;;;;;;;5.87;100.00;95387.03;29395;220;63009;-58
2024/01/04 01:09:33;;;;;;;0.60;0.60;;;;;;;5.86;100.00;95390.00;29395;204;63004;-59
2024/01/04 01:10:05;;;;;;;0.52;0.52;;;;;;;5.85;100.00;95389.22;29395;228;63009;-58
2024/01/04 01:10:36;;;;;;;0.50;0.50;;;;;;;5.84;100.00;95387.63;29394;246;64004;-58
2024/01/04 01:11:08;;;;;;;0.50;0.50;;;;;;;5.85;100.00;95393.78;29395;246;63009;-57
2024/01/04 01:11:40;;;;;;;0.50;0.50;;;;;;;5.86;100.00;95384.63;29394;223;64004;-56
2024/01/04 01:12:12;;;;;;;0.60;0.60;;;;;;;5.88;100.00;95388.63;29395;228;63008;-58
2024/01/04 01:12:46;;;;;;;0.50;0.50;;;;;;;5.89;100.00;95392.91;29395;215;63005;-59
2024/01/04 01:13:20;;;;;;;0.50;0.50;;;;;;;5.95;100.00;95389.03;29395;232;63009;-57
2024/01/04 01:13:51;;;;;;;0.50;0.50;;;;;;;5.94;100.00;95386.62;29394;204;64009;-58
2024/01/04 01:14:26;;;;;;;0.50;0.50;;;;;;;5.92;100.00;95389.63;29395;197;63009;-59
2024/01/04 01:14:57;;;;;;;0.50;0.50;;;;;;;5.90;100.00;95391.81;29395;239;63007;-57
2024/01/04 01:15:28;;;;;;;0.50;0.50;;;;;;;5.88;100.00;95377.84;29395;238;63009;-61
2024/01/04 01:16:00;;;;;;;0.50;0.50;;;;;;;5.90;100.00;95394.50;29395;202;63005;-59
2024/01/04 01:16:32;;;;;;;0.50;0.50;;;;;;;5.91;100.00;95389.91;29395;331;63009;-62
2024/01/04 01:17:04;;;;;;;0.50;0.50;;;;;;;5.95;100.00;95394.41;29395;202;63004;-59
2024/01/04 01:17:35;;;;;;;0.50;0.50;;;;;;;5.93;100.00;95396.59;29395;249;63009;-60
2024/01/04 01:18:10;;;;;;;0.50;0.50;;;;;;;5.93;100.00;95385.81;29395;314;63004;-59
2024/01/04 01:18:43;;;;;;;0.50;0.50;;;;;;;5.95;100.00;95396.28;29395;235;63009;-58
2024/01/04 01:19:15;;;;;;;0.50;0.50;;;;;;;5.95;100.00;95399.78;29394;211;64008;-56
2024/01/04 01:19:46;;;;;;;0.60;0.60;;;;;;;5.96;100.00;95396.00;29395;223;63008;-58
2024/01/04 01:20:17;;;;;;;0.50;0.50;;;;;;;5.93;100.00;95390.41;29395;219;63005;-58
2024/01/04 01:20:49;;;;;;;0.60;0.60;;;;;;;5.93;100.00;95390.41;29395;219;63009;-60
2024/01/04 01:21:20;;;;;;;0.50;0.50;;;;;;;5.90;100.00;95391.81;29395;248;63005;-59
2024/01/04 01:21:51;;;;;;;0.60;0.60;;;;;;;5.88;100.00;95393.19;29395;334;63009;-59
2024/01/04 01:22:24;;;;;;;0.60;0.60;;;;;;;5.86;100.00;95396.19;29395;208;63005;-60
2024/01/04 01:22:55;;;;;;;0.52;0.52;;;;;;;5.87;100.00;95403.16;29395;306;63020;-59
2024/01/04 01:23:28;;;;;;;0.50;0.50;;;;;;;5.87;100.00;95395.09;29395;227;63005;-59
2024/01/04 01:23:59;;;;;;;0.50;0.50;;;;;;;5.85;100.00;95391.91;29395;213;63009;-61
2024/01/04 01:24:31;;;;;;;0.50;0.50;;;;;;;5.83;100.00;95398.69;29394;198;64009;-57
2024/01/04 01:25:02;;;;;;;0.50;0.50;;;;;;;5.80;100.00;95408.16;29395;197;63009;-57
2024/01/04 01:25:37;;;;;;;0.50;0.50;;;;;;;5.78;100.00;95420.31;29395;268;63004;-60
2024/01/04 01:26:08;;;;;;;0.60;0.60;;;;;;;5.82;100.00;95405.97;29395;228;63009;-59
2024/01/04 01:26:42;;;;;;;0.60;0.60;;;;;;;5.84;100.00;95401.06;29395;210;63004;-61
2024/01/04 01:27:15;;;;;;;0.50;0.50;;;;;;;5.85;100.00;95413.44;29395;202;63008;-57
2024/01/04 01:27:46;;;;;;;0.50;0.50;;;;;;;5.86;100.00;95415.03;29395;230;63005;-57
2024/01/04 01:28:20;;;;;;;0.50;0.50;;;;;;;5.85;100.00;95426.91;29395;244;63009;-57
2024/01/04 01:28:52;;;;;;;0.60;0.60;;;;;;;5.92;100.00;95408.47;29395;199;63005;-58
2024/01/04 01:29:23;;;;;;;0.50;0.50;;;;;;;6.03;100.00;95407.16;29395;330;63009;-60
2024/01/04 01:29:54;;;;;;;0.50;0.50;;;;;;;6.05;100.00;95410.38;29394;202;64009;-57
2024/01/04 01:30:29;;;;;;;0.50;0.50;;;;;;;6.07;100.00;95412.75;29394;269;64013;-58
2024/01/04 01:31:01;;;;;;;0.50;0.50;;;;;;;6.05;100.00;95410.38;29395;387;63005;-58
2024/01/04 01:31:40;;;;;;;0.50;0.50;;;;;;;6.07;100.00;95406.56;29395;249;63022;-58
2024/01/04 01:32:15;;;;;;;0.50;0.50;;;;;;;6.05;100.00;95415.75;29394;222;64009;-57
2024/01/04 01:32:47;;;;;;;0.60;0.60;;;;;;;6.01;100.00;95403.97;29395;215;63009;-57
2024/01/04 01:33:18;;;;;;;0.60;0.60;;;;;;;5.97;100.00;95411.06;29395;218;63008;-61
2024/01/04 01:33:49;;;;;;;0.60;0.60;;;;;;;5.94;100.00;95406.28;29395;312;63025;-61
2024/01/04 01:34:23;;;;;;;0.50;0.50;;;;;;;5.96;100.00;95422.91;29395;228;63004;-59
2024/01/04 01:34:57;;;;;;;0.50;0.50;;;;;;;5.95;100.00;95410.56;29395;335;63008;-58
2024/01/04 01:35:29;;;;;;;0.50;0.50;;;;;;;5.93;100.00;95406.56;29395;228;63005;-58
2024/01/04 01:36:01;;;;;;;0.60;0.60;;;;;;;5.91;100.00;95414.13;29395;226;63009;-58
2024/01/04 01:36:33;;;;;;;0.50;0.50;;;;;;;5.89;100.00;95408.28;29395;249;63016;-59
2024/01/04 01:37:06;;;;;;;0.60;0.60;;;;;;;5.85;100.00;95413.44;29395;209;63009;-59
2024/01/04 01:37:40;;;;;;;0.60;0.60;;;;;;;5.83;100.00;95423.69;29394;202;64009;-58
2024/01/04 01:38:11;;;;;;;0.60;0.60;;;;;;;5.84;100.00;95419.13;29395;205;63009;-59
2024/01/04 01:38:44;;;;;;;0.60;0.60;;;;;;;5.81;100.00;95417.81;29395;210;63004;-59
2024/01/04 01:39:16;;;;;;;0.60;0.60;;;;;;;5.85;100.00;95420.72;29395;202;63019;-58
2024/01/04 01:39:47;;;;;;;0.60;0.60;;;;;;;5.86;100.00;95417.72;29395;214;63004;-60
2024/01/04 01:40:22;;;;;;;0.60;0.60;;;;;;;5.86;100.00;95423.09;29395;213;63009;-60
2024/01/04 01:40:53;;;;;;;0.60;0.60;;;;;;;5.83;100.00;95431.78;29395;220;63004;-62
2024/01/04 01:41:24;;;;;;;0.60;0.60;;;;;;;5.86;100.00;95428.50;29395;326;63008;-59
2024/01/04 01:41:55;;;;;;;0.50;0.50;;;;;;;5.88;100.00;95437.06;29395;218;63004;-61
2024/01/04 01:42:27;;;;;;;0.60;0.60;;;;;;;5.93;100.00;95418.13;29395;211;63008;-58
2024/01/04 01:42:59;;;;;;;0.50;0.50;;;;;;;5.92;100.00;95430.00;29394;324;64009;-58
2024/01/04 01:43:30;;;;;;;0.50;0.50;;;;;;;5.89;100.00;95427.13;29395;206;63009;-58
2024/01/04 01:44:01;;;;;;;0.50;0.50;;;;;;;5.89;100.00;95432.50;29395;304;63005;-60
2024/01/04 01:44:33;;;;;;;0.50;0.50;;;;;;;5.87;100.00;95432.78;29395;350;63009;-58
2024/01/04 01:45:05;;;;;;;0.60;0.60;;;;;;;5.84;100.00;95435.28;29395;233;63005;-58
2024/01/04 01:45:36;;;;;;;0.50;0.50;;;;;;;5.82;100.00;95432.06;29395;209;63009;-58
2024/01/04 01:46:07;;;;;;;0.50;0.50;;;;;;;5.79;100.00;95433.47;29395;202;63004;-60
2024/01/04 01:46:39;;;;;;;0.50;0.50;;;;;;;5.76;100.00;95438.62;29395;257;63009;-59
2024/01/04 01:47:14;;;;;;;0.50;0.50;;;;;;;5.77;100.00;95441.03;29395;197;63004;-60
2024/01/04 01:47:46;;;;;;;0.50;0.50;;;;;;;5.79;100.00;95443.44;29395;220;63019;-61
2024/01/04 01:48:18;;;;;;;0.60;0.60;;;;;;;5.84;100.00;95444.13;29394;199;64009;-61
2024/01/04 01:48:56;;;;;;;0.60;0.60;;;;;;;5.93;100.00;95445.06;29395;209;63008;-58
2024/01/04 01:49:30;;;;;;;0.60;0.60;;;;;;;5.91;100.00;95441.84;29395;242;63005;-61
2024/01/04 01:50:01;;;;;;;0.60;0.60;;;;;;;5.88;100.00;95447.84;29395;207;63009;-59
2024/01/04 01:50:34;;;;;;;0.60;0.60;;;;;;;5.87;100.00;95443.53;29395;199;63005;-59
2024/01/04 01:51:06;;;;;;;0.50;0.50;;;;;;;5.90;100.00;95448.34;29395;204;63018;-63
2024/01/04 01:51:38;;;;;;;0.50;0.50;;;;;;;5.94;100.00;95457.41;29395;221;63010;-59
2024/01/04 01:52:09;;;;;;;0.50;0.50;;;;;;;6.03;100.00;95462.91;29395;215;63009;-57
2024/01/04 01:52:41;;;;;;;0.60;0.60;;;;;;;6.02;100.00;95474.78;29395;226;63005;-62
2024/01/04 01:53:13;;;;;;;0.50;0.50;;;;;;;6.02;100.00;95472.87;29395;202;63009;-58
2024/01/04 01:53:45;;;;;;;0.57;0.57;;;;;;;6.01;100.00;95468.59;29394;203;64009;-59
2024/01/04 01:54:17;;;;;;;0.50;0.50;;;;;;;6.10;100.00;95476.00;29395;202;63009;-59
2024/01/04 01:54:49;;;;;;;0.50;0.50;;;;;;;6.13;100.00;95468.13;29395;295;63004;-61
2024/01/04 01:55:20;;;;;;;0.60;0.60;;;;;;;6.13;100.00;95486.97;29395;204;63009;-59
2024/01/04 01:55:52;;;;;;;0.60;0.60;;;;;;;6.11;100.00;95483.78;29395;209;63007;-59
2024/01/04 01:56:24;;;;;;;0.50;0.50;;;;;;;6.06;100.00;95494.63;29395;224;63015;-61
2024/01/04 01:56:56;;;;;;;0.60;0.60;;;;;;;6.05;100.00;95480.38;29395;337;63005;-56
2024/01/04 01:57:31;;;;;;;0.50;0.50;;;;;;;5.97;100.00;95478.38;29395;225;63016;-60
2024/01/04 01:58:04;;;;;;;0.50;0.50;;;;;;;5.90;100.00;95490.59;29395;330;63014;-58
2024/01/04 01:58:36;;;;;;;0.60;0.60;;;;;;;5.85;100.00;95491.50;29395;205;63009;-59
2024/01/04 01:59:08;;;;;;;0.50;0.50;;;;;;;5.81;100.00;95493.19;29394;197;64009;-58
2024/01/04 01:59:40;;;;;;;0.55;0.55;;;;;;;5.82;100.00;95491.28;29395;212;63009;-58
2024/01/04 02:00:14;;;;;;;0.60;0.60;;;;;;;5.83;100.00;95492.88;29395;212;63005;-58
2024/01/04 02:00:46;;;;;;;0.60;0.60;;;;;;;5.77;100.00;95484.09;29395;199;63009;-59
2024/01/04 02:01:19;;;;;;;0.60;0.60;;;;;;;5.72;100.00;95484.97;29395;227;63004;-60
2024/01/04 02:01:52;;;;;;;0.50;0.50;;;;;;;5.69;100.00;95479.38;29395;225;63009;-58
2024/01/04 02:02:24;;;;;;;0.50;0.50;;;;;;;5.69;100.00;95482.09;29395;204;63004;-58
2024/01/04 02:02:57;;;;;;;0.60;0.60;;;;;;;5.69;100.00;95471.31;29395;205;63009;-56
2024/01/04 02:03:28;;;;;;;0.50;0.50;;;;;;;5.68;100.00;95475.91;29395;213;63008;-58
2024/01/04 02:03:59;;;;;;;0.50;0.50;;;;;;;5.68;100.00;95472.41;29395;213;63008;-60
2024/01/04 02:04:32;;;;;;;0.60;0.60;;;;;;;5.68;100.00;95469.72;29394;215;64009;-59
2024/01/04 02:05:04;;;;;;;0.60;0.60;;;;;;;5.67;100.00;95484.28;29395;292;63009;-60
2024/01/04 02:05:35;;;;;;;0.60;0.60;;;;;;;5.70;100.00;95472.91;29395;211;63005;-55
2024/01/04 02:06:06;;;;;;;0.50;0.50;;;;;;;5.72;100.00;95455.38;29395;333;63009;-57
2024/01/04 02:06:39;;;;;;;0.50;0.50;;;;;;;5.75;100.00;95454.00;29395;261;63005;-57
2024/01/04 02:07:10;;;;;;;0.60;0.60;;;;;;;5.78;100.00;95449.91;29395;263;63009;-60
2024/01/04 02:07:44;;;;;;;0.60;0.60;;;;;;;5.79;100.00;95476.53;29395;252;63005;-59
2024/01/04 02:08:15;;;;;;;0.60;0.60;;;;;;;5.80;100.00;95448.53;29395;204;63009;-57
2024/01/04 02:08:49;;;;;;;0.50;0.50;;;;;;;5.84;100.00;95465.69;29395;210;63004;-62
2024/01/04 02:09:20;;;;;;;0.57;0.57;;;;;;;5.82;100.00;95459.78;29395;218;63025;-59
2024/01/04 02:09:52;;;;;;;0.50;0.50;;;;;;;5.84;100.00;95472.94;29394;211;64009;-56
2024/01/04 02:10:23;;;;;;;0.50;0.50;;;;;;;5.85;100.00;95451.13;29395;204;63009;-58
2024/01/04 02:10:54;;;;;;;0.60;0.60;;;;;;;5.82;100.00;95459.00;29395;302;63008;-59
2024/01/04 02:11:26;;;;;;;0.50;0.50;;;;;;;5.77;100.00;95462.56;29395;214;63017;-57
2024/01/04 02:12:05;;;;;;;0.60;0.60;;;;;;;5.80;100.00;95448.53;29395;212;63005;-61
2024/01/04 02:12:37;;;;;;;0.60;0.60;;;;;;;5.72;100.00;95455.38;29395;227;63021;-58
2024/01/04 02:13:10;;;;;;;0.50;0.50;;;;;;;5.68;100.00;95461.66;29395;197;63005;-57
2024/01/04 02:13:42;;;;;;;0.60;0.60;;;;;;;5.65;100.00;95454.97;29395;207;63009;-58
2024/01/04 02:14:14;;;;;;;0.60;0.60;;;;;;;5.62;100.00;95465.50;29395;226;63005;-58
2024/01/04 02:14:48;;;;;;;0.60;0.60;;;;;;;5.61;100.00;95462.03;29395;299;63009;-62
2024/01/04 02:15:19;;;;;;;0.60;0.60;;;;;;;5.62;100.00;95454.75;29394;227;64009;-59
2024/01/04 02:15:51;;;;;;;0.60;0.60;;;;;;;5.61;100.00;95464.72;29395;202;63009;-60
2024/01/04 02:16:23;;;;;;;0.60;0.60;;;;;;;5.58;100.00;95465.31;29395;203;63004;-59
2024/01/04 02:16:54;;;;;;;0.60;0.60;;;;;;;5.58;100.00;95469.88;29395;255;63009;-60
2024/01/04 02:17:26;;;;;;;0.60;0.60;;;;;;;5.58;100.00;95477.97;29395;199;63004;-58
2024/01/04 02:17:58;;;;;;;0.60;0.60;;;;;;;5.57;100.00;95481.75;29395;227;63024;-56
2024/01/04 02:18:29;;;;;;;0.60;0.60;;;;;;;5.55;100.00;95482.03;29395;223;63004;-58
2024/01/04 02:19:00;;;;;;;0.55;0.55;;;;;;;5.60;100.00;95494.59;29395;210;63016;-57
2024/01/04 02:19:34;;;;;;;0.60;0.60;;;;;;;5.60;100.00;95473.09;29395;315;63018;-60
2024/01/04 02:20:07;;;;;;;0.60;0.60;;;;;;;5.63;100.00;95488.63;29395;203;63009;-58
2024/01/04 02:20:39;;;;;;;0.60;0.60;;;;;;;5.61;100.00;95477.38;29394;210;64009;-64
2024/01/04 02:21:12;;;;;;;0.60;0.60;;;;;;;5.61;100.00;95502.38;29395;261;63027;-57
2024/01/04 02:21:43;;;;;;;0.60;0.60;;;;;;;5.59;100.00;95493.81;29395;203;63005;-60
2024/01/04 02:22:17;;;;;;;0.50;0.50;;;;;;;5.57;100.00;95498.69;29395;280;63009;-64
2024/01/04 02:22:51;;;;;;;0.60;0.60;;;;;;;5.57;100.00;95492.50;29395;231;63005;-60
2024/01/04 02:23:22;;;;;;;0.50;0.50;;;;;;;5.54;100.00;95495.81;29395;205;63009;-60
2024/01/04 02:23:54;;;;;;;0.60;0.60;;;;;;;5.53;100.00;95507.66;29395;237;63009;-58
2024/01/04 02:24:25;;;;;;;0.50;0.50;;;;;;;5.54;100.00;95506.56;29395;203;63009;-60
2024/01/04 02:24:57;;;;;;;0.50;0.50;;;;;;;5.52;100.00;95506.06;29395;259;63004;-59
2024/01/04 02:25:29;;;;;;;0.60;0.60;;;;;;;5.50;100.00;95505.56;29395;289;63027;-63
2024/01/04 02:26:02;;;;;;;0.60;0.60;;;;;;;5.49;100.00;95506.66;29394;208;64009;-60
2024/01/04 02:26:33;;;;;;;0.57;0.57;;;;;;;5.46;100.00;95505.34;29395;223;63012;-59
2024/01/04 02:27:04;;;;;;;0.50;0.50;;;;;;;5.46;100.00;95515.31;29395;204;63005;-59
2024/01/04 02:27:37;;;;;;;0.57;0.57;;;;;;;5.42;100.00;95520.47;29395;229;63009;-63
2024/01/04 02:28:08;;;;;;;0.60;0.60;;;;;;;5.46;100.00;95526.06;29395;276;63005;-62
2024/01/04 02:28:41;;;;;;;0.60;0.60;;;;;;;5.51;100.00;95539.44;29395;328;63009;-57
2024/01/04 02:29:12;;;;;;;0.60;0.60;;;;;;;5.59;100.00;95536.06;29395;261;63005;-56
2024/01/04 02:29:46;;;;;;;0.57;0.57;;;;;;;5.61;100.00;95531.19;29395;239;63009;-57
2024/01/04 02:30:21;;;;;;;0.60;0.60;;;;;;;5.65;100.00;95532.19;29395;374;63005;-54
2024/01/04 02:30:53;;;;;;;0.60;0.60;;;;;;;5.63;100.00;95531.69;29395;204;63009;-60
2024/01/04 02:31:24;;;;;;;0.50;0.50;;;;;;;5.62;100.00;95527.41;29394;238;64009;-58
2024/01/04 02:31:56;;;;;;;0.60;0.60;;;;;;;5.58;100.00;95529.88;29395;251;63009;-60
2024/01/04 02:32:28;;;;;;;0.60;0.60;;;;;;;5.55;100.00;95540.44;29395;238;63004;-61
2024/01/04 02:33:01;;;;;;;0.55;0.55;;;;;;;5.51;100.00;95542.13;29395;313;63008;-59
2024/01/04 02:33:32;;;;;;;0.60;0.60;;;;;;;5.47;100.00;95533.03;29394;219;64004;-60
2024/01/04 02:34:06;;;;;;;0.60;0.60;;;;;;;5.41;100.00;95534.22;29395;210;63008;-59